Terminal Aerodrome Forecast
Issued by NWS

Home | Current Version | Previous Version | Text Only | Print | Product List | Glossary On
Versions: 1 2 3 4 5 6 7 8 9 10 11 12 13 14
707
FTUS44 KBMX 121728
TAFMGM
TAF
KMGM 121728Z 1218/1318 28009G18KT P6SM SKC
     FM122300 32008KT P6SM SKC
     FM131200 35008KT P6SM SKC=

USA.gov is the U.S. government's official web portal to all federal, state and local government web resources and services.